Terminal Aerodrome Forecast
Issued by NWS Bismarck, ND

Home | Current Version | Previous Version | Text Only | Print | Product List | Glossary Off
Versions: 1 2 3 4 5 6 7 8 9 10 11 12 13 14

035
FTUS43 KBIS 021720
TAFBIS
TAF
KBIS 021720Z 0218/0318 35005KT P6SM SCT100
     FM022200 07005KT P6SM SCT070
     FM030600 VRB03KT P6SM FEW250=

USA.gov is the U.S. government's official web portal to all federal, state and local government web resources and services.